Time;durP1;ratioP1;P1;durP2;ratioP2;P2;SDS_P1;SDS_P2;PMS_P1;PMS_P2;Temp;Humidity;BMP_temperature;BMP_pressure;BME280_temperature;BME280_humidity;BME280_pressure;Samples;Min_cycle;Max_cycle;Signal;HPM_P1;HPM_P2
2022/12/15 07:13:32;;;;;;;51.35;34.98;;;;;;;0.08;100.00;97041.34;1871532;76;28373;-63
2022/12/15 07:16:00;;;;;;;50.38;31.52;;;;;;;0.03;100.00;97047.35;1827758;78;21509;-70
2022/12/15 07:18:28;;;;;;;46.20;28.40;;;;;;;0.06;100.00;97050.02;1828197;78;21087;-64
2022/12/15 07:20:56;;;;;;;42.33;26.10;;;;;;;0.10;100.00;97055.86;1827741;78;20860;-63
2022/12/15 07:23:23;;;;;;;29.55;19.85;;;;;;;0.17;100.00;97060.42;1823980;78;20908;-67
2022/12/15 07:25:50;;;;;;;26.42;17.92;;;;;;;0.27;100.00;97055.78;1821013;77;21434;-65
2022/12/15 07:28:16;;;;;;;22.98;16.42;;;;;;;0.35;100.00;97063.27;1816872;78;20872;-69
2022/12/15 07:30:44;;;;;;;22.58;15.85;;;;;;;0.41;100.00;97064.38;1827820;78;21235;-62
2022/12/15 07:33:11;;;;;;;23.07;17.57;;;;;;;0.50;100.00;97073.42;1824097;77;20955;-68
2022/12/15 07:35:38;;;;;;;26.45;19.62;;;;;;;0.56;100.00;97067.18;1806095;77;21599;-68
2022/12/15 07:38:06;;;;;;;24.50;16.00;;;;;;;0.64;100.00;97077.77;1828059;78;21371;-69
2022/12/15 07:40:34;;;;;;;25.75;17.32;;;;;;;0.70;100.00;97071.52;1827724;78;20864;-72
2022/12/15 07:43:00;;;;;;;25.05;17.60;;;;;;;0.76;100.00;97076.30;1825197;78;21404;-62
2022/12/15 07:45:27;;;;;;;21.37;16.65;;;;;;;0.82;100.00;97085.34;1844907;77;20880;-65
2022/12/15 07:47:54;;;;;;;26.82;18.87;;;;;;;0.86;100.00;97090.38;1827186;78;21402;-64
2022/12/15 07:50:20;;;;;;;23.87;18.77;;;;;;;0.88;100.00;97092.76;1818841;77;20959;-67
2022/12/15 07:52:47;;;;;;;21.12;16.85;;;;;;;0.90;100.00;97100.69;1787532;78;20923;-66
2022/12/15 07:55:15;;;;;;;22.45;17.65;;;;;;;0.94;100.00;97102.32;1756514;80;21138;-66
2022/12/15 07:57:42;;;;;;;25.50;18.42;;;;;;;0.94;100.00;97105.76;1791730;79;20987;-61
2022/12/15 08:00:13;;;;;;;23.65;17.87;;;;;;;0.96;100.00;97104.98;1774885;79;20993;-67
2022/12/15 08:02:41;;;;;;;23.38;17.37;;;;;;;1.00;100.00;97106.06;1764564;79;21019;-69
2022/12/15 08:05:09;;;;;;;23.15;17.75;;;;;;;1.03;100.00;97112.16;1779532;80;20928;-62
2022/12/15 08:07:35;;;;;;;29.87;20.02;;;;;;;1.03;100.00;97121.39;1779249;79;21190;-68
2022/12/15 08:10:04;;;;;;;25.75;18.48;;;;;;;1.03;100.00;97126.67;1761518;79;20896;-66
2022/12/15 08:12:31;;;;;;;22.55;17.62;;;;;;;1.05;100.00;97130.36;1752986;81;20887;-60
2022/12/15 08:14:58;;;;;;;23.65;18.17;;;;;;;1.06;100.00;97131.42;1747102;80;20943;-69
2022/12/15 08:17:24;;;;;;;25.97;19.17;;;;;;;1.09;100.00;97138.84;1745896;82;20883;-70
2022/12/15 08:19:51;;;;;;;27.85;20.27;;;;;;;1.11;100.00;97137.27;1749803;80;21266;-66
2022/12/15 08:22:18;;;;;;;24.72;19.67;;;;;;;1.16;100.00;97140.75;1746928;82;20884;-69
2022/12/15 08:24:46;;;;;;;25.65;19.67;;;;;;;1.24;100.00;97143.46;1746353;80;20935;-67
2022/12/15 08:27:14;;;;;;;21.48;16.87;;;;;;;1.30;100.00;97147.20;1765171;80;20927;-69
2022/12/15 08:29:40;;;;;;;22.85;17.67;;;;;;;1.36;100.00;97150.17;1766151;80;21427;-67
2022/12/15 08:32:07;;;;;;;23.85;18.52;;;;;;;1.37;100.00;97150.43;1756480;81;21083;-63
2022/12/15 08:34:34;;;;;;;26.62;20.12;;;;;;;1.38;100.00;97149.39;1772345;80;20941;-67
2022/12/15 08:37:01;;;;;;;24.92;20.15;;;;;;;1.39;100.00;97161.52;1824583;77;20943;-66
2022/12/15 08:39:28;;;;;;;23.55;18.65;;;;;;;1.39;100.00;97160.20;1815286;79;20888;-70
2022/12/15 08:41:55;;;;;;;40.80;27.73;;;;;;;1.41;100.00;97159.17;1815240;79;20916;-60
2022/12/15 08:44:22;;;;;;;276.42;135.70;;;;;;;1.44;100.00;97170.55;1805828;77;21094;-61
2022/12/15 08:46:50;;;;;;;34.92;26.02;;;;;;;1.49;100.00;97164.77;1811705;77;21473;-62
2022/12/15 08:49:17;;;;;;;32.67;23.85;;;;;;;1.55;100.00;97166.94;1805721;77;20982;-62
2022/12/15 08:51:44;;;;;;;27.35;21.85;;;;;;;1.58;100.00;97164.57;1814365;79;20988;-60
2022/12/15 08:54:10;;;;;;;25.72;20.32;;;;;;;1.54;100.00;97170.61;1815175;79;20992;-61
2022/12/15 08:56:37;;;;;;;22.30;18.50;;;;;;;1.50;100.00;97172.17;1816145;78;21344;-62
2022/12/15 08:59:03;;;;;;;15.45;12.85;;;;;;;1.49;100.00;97179.28;1816911;77;20860;-68
2022/12/15 09:01:31;;;;;;;19.20;14.45;;;;;;;1.47;100.00;97176.62;1813945;77;20911;-62
2022/12/15 09:03:57;;;;;;;16.65;12.05;;;;;;;1.46;100.00;97175.82;1817353;77;20940;-61
2022/12/15 09:06:28;;;;;;;16.77;12.13;;;;;;;1.49;100.00;97171.89;1815916;78;20873;-63
2022/12/15 09:09:00;;;;;;;16.93;11.50;;;;;;;1.53;100.00;97171.67;1804856;79;22027;-62
2022/12/15 09:11:28;;;;;;;16.52;11.93;;;;;;;1.57;100.00;97178.83;1814336;77;21029;-61
2022/12/15 09:13:55;;;;;;;12.33;9.50;;;;;;;1.61;100.00;97175.16;1805728;78;20872;-64
2022/12/15 09:16:26;;;;;;;13.03;10.20;;;;;;;1.64;100.00;97189.17;1818229;78;20888;-67
2022/12/15 09:18:55;;;;;;;12.60;10.78;;;;;;;1.67;100.00;97192.09;1819803;78;20869;-62
2022/12/15 09:21:24;;;;;;;14.98;10.82;;;;;;;1.69;100.00;97187.38;1817356;78;21065;-62
2022/12/15 09:23:56;;;;;;;16.95;11.88;;;;;;;1.68;100.00;97191.57;1822412;77;21189;-63
2022/12/15 09:26:23;;;;;;;12.37;10.15;;;;;;;1.68;100.00;97195.02;1810915;78;21002;-66
2022/12/15 09:28:50;;;;;;;14.50;10.53;;;;;;;1.67;100.00;97196.59;1821588;78;20982;-68
2022/12/15 09:31:21;;;;;;;13.20;10.85;;;;;;;1.67;100.00;97200.55;1814161;77;21003;-65
2022/12/15 09:33:49;;;;;;;13.90;10.35;;;;;;;1.63;100.00;97204.20;1818093;78;21274;-62
2022/12/15 09:36:16;;;;;;;13.20;10.45;;;;;;;1.61;100.00;97200.23;1817204;78;20896;-63
2022/12/15 09:38:46;;;;;;;13.83;10.25;;;;;;;1.62;100.00;97207.11;1821823;78;21026;-71
2022/12/15 09:41:26;;;;;;;12.93;9.40;;;;;;;1.62;100.00;97203.16;1805561;77;21086;-59
2022/12/15 09:44:07;;;;;;;11.78;10.10;;;;;;;1.62;100.00;97203.16;1822637;78;20868;-61
2022/12/15 09:47:24;;;;;;;12.82;11.05;;;;;;;1.61;100.00;97204.98;1794144;80;21237;-69
2022/12/15 09:49:56;;;;;;;14.90;11.30;;;;;;;1.61;100.00;97210.78;1793057;79;20931;-70
2022/12/15 09:52:40;;;;;;;13.53;11.00;;;;;;;1.60;100.00;97218.45;1794380;78;21013;-71
2022/12/15 09:55:22;;;;;;;12.82;9.93;;;;;;;1.58;100.00;97219.23;1805924;78;20911;-66
2022/12/15 09:58:13;;;;;;;13.93;10.98;;;;;;;1.56;100.00;97231.86;1757285;81;20982;-66
2022/12/15 10:00:51;;;;;;;13.18;10.53;;;;;;;1.50;100.00;97228.91;1740655;82;22135;-65
2022/12/15 10:03:47;;;;;;;13.95;12.45;;;;;;;1.42;100.00;97228.03;1757452;80;20881;-61
2022/12/15 10:06:18;;;;;;;15.38;12.23;;;;;;;1.35;100.00;97242.23;1753785;80;20986;-67
2022/12/15 10:08:59;;;;;;;17.20;12.28;;;;;;;1.34;100.00;97245.91;1748155;82;21400;-65
2022/12/15 10:11:47;;;;;;;14.73;11.78;;;;;;;1.36;100.00;97244.36;1749184;82;21439;-69
2022/12/15 10:14:52;;;;;;;17.00;12.23;;;;;;;1.37;100.00;97257.30;1752820;81;21147;-66
2022/12/15 10:17:27;;;;;;;14.53;10.98;;;;;;;1.35;100.00;97258.07;1764666;80;21114;-63
2022/12/15 10:20:21;;;;;;;15.28;12.55;;;;;;;1.28;100.00;97261.43;1752696;80;21055;-65
2022/12/15 10:22:47;;;;;;;18.42;13.13;;;;;;;1.26;100.00;97274.08;1760649;81;20937;-62
2022/12/15 10:25:28;;;;;;;16.70;11.63;;;;;;;1.23;100.00;97270.61;1765044;80;21127;-69
2022/12/15 10:28:23;;;;;;;15.83;12.37;;;;;;;1.24;100.00;97270.09;1765371;81;21067;-65
2022/12/15 10:31:03;;;;;;;16.62;12.63;;;;;;;1.18;100.00;97275.02;1745941;80;20944;-61
2022/12/15 10:33:33;;;;;;;21.37;14.40;;;;;;;1.13;100.00;97277.63;1763057;80;20972;-70
2022/12/15 10:36:00;;;;;;;19.80;14.75;;;;;;;1.08;100.00;97275.73;1753360;80;20917;-61
2022/12/15 10:38:39;;;;;;;20.05;14.00;;;;;;;1.04;100.00;97279.89;1735560;82;21312;-65
2022/12/15 10:41:11;;;;;;;19.35;15.75;;;;;;;0.97;100.00;97281.91;1735475;82;21117;-62
2022/12/15 10:43:40;;;;;;;19.75;14.98;;;;;;;0.89;100.00;97292.91;1748648;79;20991;-61
2022/12/15 10:46:26;;;;;;;21.95;15.45;;;;;;;0.89;100.00;97286.83;1763358;81;21388;-61
2022/12/15 10:49:10;;;;;;;18.30;14.63;;;;;;;0.89;100.00;97294.23;1735415;82;20937;-67
2022/12/15 10:51:46;;;;;;;18.45;14.28;;;;;;;0.90;100.00;97293.17;1735853;81;21068;-61
2022/12/15 10:54:14;;;;;;;20.17;15.30;;;;;;;0.93;100.00;97303.23;1735531;82;21141;-70
2022/12/15 10:56:53;;;;;;;19.27;14.55;;;;;;;0.93;100.00;97312.47;1743605;79;20988;-61
2022/12/15 10:59:32;;;;;;;22.25;16.27;;;;;;;0.89;100.00;97315.33;1765055;81;21450;-63
2022/12/15 11:02:24;;;;;;;23.65;17.27;;;;;;;0.86;100.00;97321.08;1765812;81;21351;-61
2022/12/15 11:05:15;;;;;;;21.07;15.90;;;;;;;0.86;100.00;97311.84;1765282;81;21007;-64
2022/12/15 11:07:49;;;;;;;18.75;14.87;;;;;;;0.88;100.00;97307.12;1765458;79;22027;-66
2022/12/15 11:10:26;;;;;;;20.30;16.10;;;;;;;0.92;100.00;97312.72;1750993;81;21019;-60
2022/12/15 11:13:15;;;;;;;19.90;16.32;;;;;;;0.94;100.00;97311.44;1770283;80;20972;-60
2022/12/15 11:15:52;;;;;;;21.20;15.38;;;;;;;0.99;100.00;97314.11;1754174;81;20983;-64
2022/12/15 11:18:40;;;;;;;21.97;16.70;;;;;;;1.00;100.00;97324.94;1724923;81;21454;-63
2022/12/15 11:21:26;;;;;;;22.07;16.57;;;;;;;1.00;100.00;97318.87;1766639;80;21084;-67
2022/12/15 11:24:15;;;;;;;;;;;;;;;0.97;100.00;97317.52;1756057;80;20974;-59
2022/12/15 11:27:15;;;;;;;23.25;17.40;;;;;;;0.97;100.00;97323.30;1734826;82;20111;-62
2022/12/15 11:30:16;;;;;;;22.27;16.95;;;;;;;0.95;100.00;97324.88;1748443;81;20906;-64
2022/12/15 11:32:47;;;;;;;21.07;15.75;;;;;;;0.93;100.00;97329.60;1785139;80;20904;-60
2022/12/15 11:35:20;;;;;;;19.62;13.18;;;;;;;0.91;100.00;97340.92;1748251;80;21212;-61
2022/12/15 11:38:10;;;;;;;22.00;15.25;;;;;;;0.91;100.00;97347.52;1765369;80;20971;-62
2022/12/15 11:40:41;;;;;;;22.42;16.10;;;;;;;0.91;100.00;97344.07;1766876;80;21063;-65
2022/12/15 11:43:45;;;;;;;24.20;17.62;;;;;;;0.90;100.00;97348.54;1760638;80;21015;-65
2022/12/15 11:46:32;;;;;;;23.20;17.95;;;;;;;0.92;100.00;97347.00;1762903;80;20948;-64
2022/12/15 11:49:25;;;;;;;;;;;;;;;0.94;100.00;97348.87;1748152;82;21134;-62
2022/12/15 11:52:06;;;;;;;21.27;16.15;;;;;;;0.95;100.00;97360.48;1725076;81;20080;-63
2022/12/15 11:54:50;;;;;;;17.73;14.63;;;;;;;0.92;100.00;97363.59;1735485;79;20988;-62
2022/12/15 11:57:41;;;;;;;20.37;15.50;;;;;;;0.96;100.00;97370.00;1777602;80;21435;-61
2022/12/15 12:00:13;;;;;;;20.60;15.85;;;;;;;1.00;100.00;97380.33;1782739;80;20895;-59
2022/12/15 12:03:03;;;;;;;19.40;14.47;;;;;;;1.02;100.00;97376.92;1784615;80;21111;-62
2022/12/15 12:05:59;;;;;;;18.10;14.73;;;;;;;1.00;100.00;97388.23;1775064;79;21063;-61
2022/12/15 12:08:32;;;;;;;19.15;14.63;;;;;;;1.00;100.00;97384.28;1812599;78;20923;-63
2022/12/15 12:11:13;;;;;;;19.77;15.55;;;;;;;0.99;100.00;97381.90;1816319;77;20948;-63
2022/12/15 12:14:09;;;;;;;20.70;16.50;;;;;;;0.97;100.00;97383.44;1822055;78;20994;-63
2022/12/15 12:16:51;;;;;;;19.90;15.72;;;;;;;1.00;100.00;97381.64;1817293;77;22130;-65
2022/12/15 12:19:38;;;;;;;22.55;17.07;;;;;;;1.01;100.00;97381.94;1826811;78;20983;-65
2022/12/15 12:22:26;;;;;;;18.57;14.58;;;;;;;1.00;100.00;97384.28;1822248;77;20983;-66
2022/12/15 12:25:14;;;;;;;18.60;14.85;;;;;;;1.00;100.00;97381.64;1821887;78;20908;-61
2022/12/15 12:27:52;;;;;;;20.52;15.13;;;;;;;1.04;100.00;97386.70;1794157;80;21017;-62
2022/12/15 12:30:24;;;;;;;19.35;15.23;;;;;;;1.11;100.00;97380.72;1793635;80;21126;-60
2022/12/15 12:32:59;;;;;;;19.50;15.93;;;;;;;1.16;100.00;97386.07;1821601;77;21480;-63
2022/12/15 12:35:50;;;;;;;20.95;16.15;;;;;;;1.16;100.00;97392.66;1825402;77;21418;-59
2022/12/15 12:38:23;;;;;;;17.98;14.00;;;;;;;1.19;100.00;97396.66;1816650;77;20928;-63
2022/12/15 12:41:04;;;;;;;15.75;12.68;;;;;;;1.20;100.00;97401.67;1819537;77;21187;-62
2022/12/15 12:43:45;;;;;;;15.50;12.35;;;;;;;1.15;100.00;97400.31;1818743;77;20967;-63
2022/12/15 12:46:27;;;;;;;17.62;13.08;;;;;;;1.17;100.00;97399.55;1812345;77;20958;-65
2022/12/15 12:49:14;;;;;;;16.97;12.65;;;;;;;1.19;99.73;97409.33;1826076;78;21045;-60
2022/12/15 12:51:41;;;;;;;17.92;13.85;;;;;;;1.21;99.59;97411.20;1823335;77;20978;-57
2022/12/15 12:54:38;;;;;;;21.87;14.05;;;;;;;1.22;99.38;97418.09;1830096;77;21082;-58
2022/12/15 12:57:14;;;;;;;17.55;13.98;;;;;;;1.22;99.31;97414.12;1802441;77;21219;-63
2022/12/15 12:59:43;;;;;;;;;;;;;;;1.22;99.29;97414.64;1807674;78;20972;-58
2022/12/15 13:02:28;;;;;;;16.05;12.07;;;;;;;1.25;99.33;97427.32;1809528;77;20177;-63
2022/12/15 13:10:48;;;;;;;18.13;14.07;;;;;;;1.27;98.96;97430.00;1823368;77;21174;-62
2022/12/15 13:13:32;;;;;;;18.35;14.93;;;;;;;1.30;99.06;97437.44;1826266;78;21432;-63
2022/12/15 13:16:23;;;;;;;22.25;14.93;;;;;;;1.31;98.83;97439.05;1825303;78;21370;-61
2022/12/15 13:19:03;;;;;;;19.02;14.68;;;;;;;1.32;98.53;97434.54;1828050;77;21019;-59
2022/12/15 13:21:47;;;;;;;19.37;14.18;;;;;;;1.27;98.13;97435.27;1819364;77;21023;-57
2022/12/15 13:24:42;;;;;;;18.20;14.00;;;;;;;1.20;98.15;97442.56;1829396;77;21044;-64
2022/12/15 13:27:13;;;;;;;18.60;13.15;;;;;;;1.17;97.88;97449.67;1837182;77;21000;-60
